Terminal Aerodrome Forecast
Issued by NWS Shreveport, LA

Current Version | Previous Version | Text Only | Print | Product List | Glossary On
Versions: 1 2 3 4 5 6 7 8 9 10 11 12 13 14 15 16
438
FTUS44 KSHV 242320
TAFELD
TAF
KELD 242320Z 2500/2524 25004KT P6SM FEW030
      TEMPO 2509/2513 5SM BR
     FM251400 23006KT P6SM SCT030 SCT250=

USA.gov is the U.S. government's official web portal to all federal, state and local government web resources and services.